Impacts TAF Board INFO
FOR SITUATIONAL AWARENESS. NOT TO BE USED FOR FLIGHT PLANNING PURPOSES.
IDs:

KPIT - Pittsburgh Intl, PA, US

Issued at 1735 UTC 21 Jun 2018
Updated at 1944 UTC 21 Jun 2018
Potential Impact None Slight Moderate High
Time<<22/20Z 22/21Z 22/22Z 22/23Z 23/00Z 23/01Z 23/02Z 23/03Z 23/04Z 23/05Z 23/06Z 23/07Z 23/08Z
Type PRVL PRVL PRVL PRVL
VIS 5 >6 >6 >6
CIG 25 25 25 25
Cover BKN OVC OVC OVC
FltCat MVFR MVFR MVFR MVFR
WX -SHRA VCTS VCTS VCTS
WDir 120 120 120 120
WSpd 8 10 10 10
WGst -- -- -- --

Raw TAF
KPIT 211735Z 2118/2224 04005KT P6SM BKN035
  FM220600 10006KT P6SM VCSH OVC070
  FM221200 12008KT 5SM -SHRA BKN025
  FM222100 12010KT P6SM VCTS OVC025CB


METAR Board
Radar Display
Forecast Discussion

FOR SITUATIONAL AWARENESS. NOT TO BE USED FOR FLIGHT PLANNING PURPOSES.